Time;durP1;ratioP1;P1;durP2;ratioP2;P2;SDS_P1;SDS_P2;PMS_P1;PMS_P2;Temp;Humidity;BMP_temperature;BMP_pressure;BME280_temperature;BME280_humidity;BME280_pressure;Samples;Min_cycle;Max_cycle;Signal;HPM_P1;HPM_P2
2022/09/10 00:01:39;;;;;;;12.20;1.55;;;;;;;19.36;71.96;99282.13;4997081;28;20081;-66
2022/09/10 00:04:11;;;;;;;;;;;;;;;19.35;71.66;99279.59;4997621;28;20478;-65
2022/09/10 00:06:41;;;;;;;0.70;0.70;;;;;;;19.37;71.66;99282.97;4997001;28;19968;-66
2022/09/10 00:09:11;;;;;;;;;;;;;;;19.33;71.84;99281.41;4997651;28;20108;-66
2022/09/10 00:11:41;;;;;;;0.50;0.50;;;;;;;19.21;72.31;99287.09;4996869;28;19928;-65
2022/09/10 00:14:14;;;;;;;0.88;0.85;;;;;;;19.15;72.69;99282.16;4997037;28;20084;-66
2022/09/10 00:16:42;;;;;;;0.63;0.63;;;;;;;19.13;72.88;99278.78;4997143;28;20492;-65
2022/09/10 00:19:13;;;;;;;0.50;0.50;;;;;;;19.12;72.62;99282.31;4997034;28;20132;-66
2022/09/10 00:21:44;;;;;;;0.57;0.57;;;;;;;19.15;72.23;99274.41;4997060;28;20042;-66
2022/09/10 00:24:14;;;;;;;0.30;0.30;;;;;;;19.14;71.91;99270.16;4996614;28;20534;-65
2022/09/10 00:26:42;;;;;;;0.60;0.60;;;;;;;19.14;71.52;99270.16;4996641;28;20039;-66
2022/09/10 00:29:14;;;;;;;0.60;0.60;;;;;;;19.14;71.43;99273.56;4996922;28;20034;-65
2022/09/10 00:31:43;;;;;;;0.47;0.47;;;;;;;19.12;71.70;99283.13;4996832;28;20142;-66
2022/09/10 00:34:14;;;;;;;0.73;0.60;;;;;;;19.10;72.26;99274.59;4997381;28;20481;-67
2022/09/10 00:36:43;;;;;;;0.40;0.40;;;;;;;19.13;72.27;99276.22;4996480;28;20057;-66
2022/09/10 00:39:15;;;;;;;0.77;0.50;;;;;;;19.16;72.11;99276.09;4996394;28;20095;-66
2022/09/10 00:41:46;;;;;;;0.65;0.65;;;;;;;19.18;71.91;99272.53;4979035;28;20054;-66
2022/09/10 00:44:36;;;;;;;0.63;0.63;;;;;;;19.21;71.95;99276.75;4996649;28;20077;-67
2022/09/10 00:47:08;;;;;;;0.50;0.50;;;;;;;19.22;71.50;99268.06;4978896;28;20042;-67
2022/09/10 00:49:42;;;;;;;0.65;0.65;;;;;;;19.25;70.92;99273.94;4996274;28;20132;-67
2022/09/10 00:52:12;;;;;;;0.70;0.70;;;;;;;19.24;70.50;99261.91;4979560;28;20061;-66
2022/09/10 00:54:43;;;;;;;0.52;0.52;;;;;;;19.28;70.35;99254.88;4978598;28;20396;-65
2022/09/10 00:57:17;;;;;;;0.40;0.40;;;;;;;19.30;70.30;99268.59;4978911;28;20464;-68
2022/09/10 00:59:52;;;;;;;0.43;0.43;;;;;;;19.33;69.91;99281.41;4996025;28;20231;-68
2022/09/10 01:02:21;;;;;;;0.50;0.50;;;;;;;19.34;69.68;99283.06;4995979;28;20058;-66
2022/09/10 01:04:53;;;;;;;0.45;0.45;;;;;;;19.36;69.52;99278.72;4978468;28;20046;-67
2022/09/10 01:07:25;;;;;;;0.55;0.55;;;;;;;19.38;69.31;99263.97;4978541;28;20101;-66
2022/09/10 01:09:55;;;;;;;0.50;0.50;;;;;;;19.41;69.38;99269.00;4978560;28;20470;-66
2022/09/10 01:12:52;;;;;;;0.40;0.40;;;;;;;19.38;69.46;99269.13;4995771;28;20054;-66
2022/09/10 01:15:30;;;;;;;0.50;0.50;;;;;;;19.38;69.06;99269.13;4978649;28;20094;-66
2022/09/10 01:18:18;;;;;;;0.50;0.50;;;;;;;19.37;68.73;99280.38;4978347;28;20038;-66
2022/09/10 01:21:11;;;;;;;0.40;0.40;;;;;;;19.38;68.32;99269.13;4978702;28;20057;-66
2022/09/10 01:24:13;;;;;;;0.50;0.45;;;;;;;19.38;67.73;99253.59;4996418;28;20057;-66
2022/09/10 01:27:01;;;;;;;0.50;0.50;;;;;;;19.38;67.08;99258.78;4995493;28;20050;-67
2022/09/10 01:29:37;;;;;;;0.55;0.55;;;;;;;19.34;66.37;99247.69;4996042;28;20046;-67
2022/09/10 01:32:14;;;;;;;0.40;0.40;;;;;;;19.33;65.93;99245.16;4978351;28;20054;-67
2022/09/10 01:34:55;;;;;;;0.50;0.50;;;;;;;19.29;65.62;99248.81;4995705;28;20420;-65
2022/09/10 01:37:28;;;;;;;0.40;0.40;;;;;;;19.27;65.46;99243.66;4977868;28;20531;-66
2022/09/10 01:40:00;;;;;;;0.40;0.40;;;;;;;19.25;65.30;99247.22;4977672;28;20065;-65
2022/09/10 01:42:32;;;;;;;0.40;0.40;;;;;;;19.25;65.24;99247.22;4995293;28;20062;-66
2022/09/10 01:45:02;;;;;;;1.85;0.60;;;;;;;19.20;65.27;99249.16;4978044;28;20042;-67
2022/09/10 01:47:55;;;;;;;0.68;0.68;;;;;;;19.19;64.89;99247.50;4977740;28;20104;-67
2022/09/10 01:50:37;;;;;;;0.55;0.55;;;;;;;19.21;64.73;99253.44;4995084;28;20049;-66
2022/09/10 01:53:23;;;;;;;0.50;0.50;;;;;;;19.19;65.50;99247.50;4995329;28;20492;-66
2022/09/10 01:55:59;;;;;;;0.45;0.45;;;;;;;19.16;65.75;99245.03;4977928;28;20046;-66
2022/09/10 01:58:36;;;;;;;0.40;0.40;;;;;;;19.19;66.59;99231.97;4977474;28;20046;-66
2022/09/10 02:01:19;;;;;;;0.43;0.43;;;;;;;19.17;67.20;99236.38;4995098;28;20412;-65
2022/09/10 02:03:53;;;;;;;0.50;0.50;;;;;;;19.08;68.38;99234.16;4995388;28;20488;-66
2022/09/10 02:06:28;;;;;;;0.40;0.40;;;;;;;19.01;69.28;99237.91;4976660;28;20069;-66
2022/09/10 02:09:02;;;;;;;0.57;0.57;;;;;;;18.92;69.99;99248.66;4995008;28;20073;-66
2022/09/10 02:11:43;;;;;;;0.52;0.52;;;;;;;18.79;70.73;99247.50;4994688;28;20104;-66
2022/09/10 02:14:13;;;;;;;0.60;0.60;;;;;;;18.66;71.92;99242.81;4977588;28;20504;-66
2022/09/10 02:16:57;;;;;;;0.52;0.52;;;;;;;18.60;71.78;99250.81;4994597;28;20492;-66
2022/09/10 02:19:27;;;;;;;1.13;1.02;;;;;;;18.61;71.78;99249.91;4994368;28;20050;-66
2022/09/10 02:21:57;;;;;;;;;;;;;;;18.58;72.49;99250.03;4977924;28;20101;-67
2022/09/10 02:24:26;;;;;;;0.60;0.60;;;;;;;18.57;72.76;99243.16;4994485;28;19976;-66
2022/09/10 02:26:55;;;;;;;0.50;0.50;;;;;;;18.51;72.73;99243.44;4994413;28;20042;-65
2022/09/10 02:29:24;;;;;;;0.50;0.50;;;;;;;18.47;72.53;99241.88;4994655;28;20319;-67
2022/09/10 02:31:54;;;;;;;0.40;0.40;;;;;;;18.49;72.67;99232.31;4977131;28;20126;-66
2022/09/10 02:34:23;;;;;;;1.05;0.50;;;;;;;18.41;73.39;99231.72;4977318;28;20050;-67
2022/09/10 02:36:53;;;;;;;0.50;0.50;;;;;;;18.36;73.67;99230.22;4994572;28;20039;-67
2022/09/10 02:39:21;;;;;;;0.40;0.40;;;;;;;18.36;73.82;99227.63;4977004;28;20407;-67
2022/09/10 02:41:51;;;;;;;0.50;0.50;;;;;;;18.40;74.04;99224.91;4994085;28;20057;-66
2022/09/10 02:44:23;;;;;;;0.85;0.82;;;;;;;18.34;74.23;99219.09;4994246;28;20065;-66
2022/09/10 02:46:51;;;;;;;0.60;0.60;;;;;;;18.35;74.73;99215.63;4994268;28;20034;-66
2022/09/10 02:49:22;;;;;;;0.45;0.45;;;;;;;18.26;74.76;99216.81;4994157;28;20053;-66
2022/09/10 02:51:51;;;;;;;0.93;0.93;;;;;;;18.25;74.27;99220.31;4977093;28;20559;-66
2022/09/10 02:54:20;;;;;;;1.23;1.10;;;;;;;18.30;73.93;99222.72;4977112;28;20050;-67
2022/09/10 02:56:49;;;;;;;0.60;0.60;;;;;;;18.40;73.58;99229.22;4977116;28;20077;-67
2022/09/10 02:59:21;;;;;;;0.40;0.40;;;;;;;18.45;72.60;99212.59;4977093;28;20451;-67
2022/09/10 03:01:50;;;;;;;0.60;0.60;;;;;;;18.46;72.45;99219.50;4977084;28;20046;-67
2022/09/10 03:04:21;;;;;;;0.70;0.70;;;;;;;18.51;72.91;99233.09;4976727;28;20042;-66
2022/09/10 03:06:50;;;;;;;0.38;0.38;;;;;;;18.53;73.24;99225.25;4976970;28;20049;-65
2022/09/10 03:09:20;;;;;;;0.60;0.60;;;;;;;18.49;73.28;99228.88;4994022;28;20042;-67
2022/09/10 03:11:50;;;;;;;0.70;0.47;;;;;;;18.45;73.48;99228.13;4993997;28;20045;-66
2022/09/10 03:14:22;;;;;;;0.57;0.57;;;;;;;18.47;73.41;99236.69;4994226;28;20272;-67
2022/09/10 03:16:51;;;;;;;3.92;0.77;;;;;;;18.49;73.49;99239.22;4977229;28;20109;-67
2022/09/10 03:19:21;;;;;;;0.50;0.50;;;;;;;18.49;73.53;99245.22;4997428;28;20377;-66
2022/09/10 03:21:50;;;;;;;0.52;0.52;;;;;;;18.44;73.72;99236.78;4980672;28;20050;-66
2022/09/10 03:24:19;;;;;;;0.47;0.47;;;;;;;18.43;73.71;99235.09;4997762;28;20056;-67
2022/09/10 03:26:47;;;;;;;0.57;0.57;;;;;;;18.47;73.71;99246.19;4997722;28;20125;-66
2022/09/10 03:29:17;;;;;;;0.50;0.50;;;;;;;18.52;73.57;99241.69;4997960;28;20046;-67
2022/09/10 03:31:45;;;;;;;0.85;0.82;;;;;;;18.51;73.47;99233.09;4997599;28;20558;-67
2022/09/10 03:34:16;;;;;;;0.50;0.50;;;;;;;18.44;73.95;99231.63;4997930;28;20508;-66
2022/09/10 03:36:48;;;;;;;0.50;0.50;;;;;;;18.40;74.62;99224.91;4997593;28;20043;-67
2022/09/10 03:39:17;;;;;;;0.40;0.40;;;;;;;18.42;73.25;99217.91;4980229;28;20049;-67
2022/09/10 03:41:46;;;;;;;0.63;0.63;;;;;;;18.50;71.79;99218.47;4976921;28;20050;-68
2022/09/10 03:44:17;;;;;;;0.45;0.45;;;;;;;18.55;70.83;99213.97;4977877;28;20042;-66
2022/09/10 03:46:49;;;;;;;0.40;0.40;;;;;;;18.60;70.22;99222.38;4978289;28;20054;-67
2022/09/10 03:49:19;;;;;;;0.57;0.57;;;;;;;18.60;69.72;99219.78;4977052;28;20051;-66
2022/09/10 03:51:51;;;;;;;0.60;0.60;;;;;;;18.64;69.81;99218.75;4978176;28;20057;-66
2022/09/10 03:54:21;;;;;;;0.55;0.55;;;;;;;18.66;69.90;99216.13;4977982;28;20071;-67
2022/09/10 03:56:50;;;;;;;1.20;0.60;;;;;;;18.69;69.77;99216.81;4977759;28;20413;-67
2022/09/10 03:59:18;;;;;;;0.40;0.40;;;;;;;18.70;69.55;99215.94;4977669;28;20043;-67
2022/09/10 04:01:47;;;;;;;0.40;0.40;;;;;;;18.69;69.09;99205.66;4977684;28;20401;-67
2022/09/10 04:04:17;;;;;;;0.40;0.40;;;;;;;18.69;69.23;99203.88;4976740;28;20050;-66
2022/09/10 04:06:46;;;;;;;0.50;0.50;;;;;;;18.70;69.37;99202.16;4976373;28;20568;-66
2022/09/10 04:09:18;;;;;;;0.57;0.55;;;;;;;18.70;68.63;99200.41;4976382;28;20049;-67
2022/09/10 04:11:47;;;;;;;0.30;0.30;;;;;;;18.69;68.24;99196.13;4977493;28;20058;-66
2022/09/10 04:14:16;;;;;;;0.40;0.40;;;;;;;18.69;67.94;99206.47;4976217;28;20125;-66
2022/09/10 04:16:44;;;;;;;0.40;0.40;;;;;;;18.66;67.61;99196.28;4976262;28;20042;-66
2022/09/10 04:19:15;;;;;;;0.57;0.57;;;;;;;18.64;67.56;99192.06;4977554;28;20397;-67
2022/09/10 04:21:44;;;;;;;0.43;0.43;;;;;;;18.65;67.28;99189.41;4977281;28;20050;-66
2022/09/10 04:24:13;;;;;;;0.40;0.40;;;;;;;18.60;67.27;99193.94;4976308;28;20058;-66
2022/09/10 04:26:44;;;;;;;0.40;0.40;;;;;;;18.61;67.31;99187.88;4977766;28;20484;-66
2022/09/10 04:29:16;;;;;;;0.40;0.40;;;;;;;18.60;67.09;99191.34;4975113;28;20074;-66
2022/09/10 04:31:46;;;;;;;;;;;;;;;18.58;67.38;99192.31;4977517;28;20054;-67
2022/09/10 04:34:18;;;;;;;0.68;0.68;;;;;;;18.57;67.36;99195.81;4976197;28;19922;-67
2022/09/10 04:36:47;;;;;;;;;;;;;;;18.58;67.20;99203.50;4976281;28;20043;-66
2022/09/10 04:39:16;;;;;;;0.35;0.35;;;;;;;18.58;67.40;99200.91;4975796;28;19926;-67
2022/09/10 04:41:46;;;;;;;0.47;0.47;;;;;;;18.57;67.58;99212.16;4975605;28;20113;-66
2022/09/10 04:44:18;;;;;;;1.83;0.70;;;;;;;18.56;67.74;99210.47;4976065;28;20074;-68
2022/09/10 04:46:48;;;;;;;0.50;0.50;;;;;;;18.53;68.00;99205.44;4976827;28;20098;-67
2022/09/10 04:49:17;;;;;;;0.40;0.40;;;;;;;18.54;67.93;99207.13;4975642;28;20077;-68
2022/09/10 04:51:45;;;;;;;0.45;0.45;;;;;;;18.56;67.93;99207.03;4976794;28;20046;-68
2022/09/10 04:54:15;;;;;;;0.98;0.82;;;;;;;18.57;68.00;99212.16;4976708;28;20057;-67
2022/09/10 04:56:48;;;;;;;0.50;0.50;;;;;;;18.62;68.18;99210.22;4976610;28;20057;-67
2022/09/10 04:59:17;;;;;;;0.70;0.70;;;;;;;18.63;68.39;99221.41;4976544;28;20062;-68
2022/09/10 05:01:49;;;;;;;;;;;;;;;18.63;68.67;99222.25;4975855;28;20129;-68
2022/09/10 05:04:19;;;;;;;0.45;0.45;;;;;;;18.67;67.96;99216.03;4976613;28;19973;-68
2022/09/10 05:06:49;;;;;;;0.60;0.60;;;;;;;18.70;67.58;99221.09;4975533;28;20574;-67
2022/09/10 05:09:18;;;;;;;0.60;0.60;;;;;;;18.76;67.19;99211.41;4976387;28;20049;-66
2022/09/10 05:11:48;;;;;;;0.73;0.73;;;;;;;18.77;67.09;99203.56;4975272;28;20042;-68
2022/09/10 05:14:20;;;;;;;0.40;0.40;;;;;;;18.80;66.96;99212.94;4975488;28;20130;-67
2022/09/10 05:16:49;;;;;;;0.60;0.60;;;;;;;18.81;67.05;99214.66;4975104;28;20046;-67
2022/09/10 05:19:17;;;;;;;0.40;0.40;;;;;;;18.82;66.75;99221.47;4976169;28;20077;-67
2022/09/10 05:21:51;;;;;;;0.57;0.57;;;;;;;18.81;66.48;99217.22;4976172;28;20493;-66
2022/09/10 05:24:20;;;;;;;0.50;0.50;;;;;;;18.82;66.52;99224.06;4976195;28;20035;-67
2022/09/10 05:26:50;;;;;;;0.63;0.63;;;;;;;18.85;66.74;99223.94;4976101;28;20284;-67
2022/09/10 05:29:20;;;;;;;0.40;0.40;;;;;;;18.87;66.36;99230.75;4975210;28;20393;-66
2022/09/10 05:31:50;;;;;;;0.30;0.30;;;;;;;18.89;66.46;99225.50;4974837;28;20055;-67
2022/09/10 05:34:19;;;;;;;0.40;0.40;;;;;;;18.91;66.20;99232.28;4975106;28;20059;-67
2022/09/10 05:36:48;;;;;;;0.60;0.60;;;;;;;18.94;66.28;99226.16;4975881;28;20043;-67
2022/09/10 05:39:17;;;;;;;0.50;0.50;;;;;;;18.97;66.80;99231.19;4976162;28;20069;-67
2022/09/10 05:41:47;;;;;;;0.52;0.52;;;;;;;18.98;67.45;99240.66;4993237;28;20053;-68
2022/09/10 05:44:17;;;;;;;0.40;0.40;;;;;;;18.92;68.09;99238.31;4995278;28;20101;-67
2022/09/10 05:46:47;;;;;;;0.30;0.30;;;;;;;18.89;67.86;99236.69;4995692;28;20046;-67
2022/09/10 05:49:16;;;;;;;0.30;0.30;;;;;;;18.90;67.25;99232.38;4995432;28;20052;-67
2022/09/10 05:51:45;;;;;;;0.83;0.80;;;;;;;18.90;67.70;99230.63;4977740;28;20073;-67
2022/09/10 05:54:15;;;;;;;0.57;0.52;;;;;;;18.90;67.76;99224.59;4977649;28;20288;-67
2022/09/10 05:56:44;;;;;;;0.50;0.50;;;;;;;18.91;67.95;99221.94;4977601;28;20530;-67
2022/09/10 05:59:13;;;;;;;;;;;;;;;19.04;67.50;99219.69;4979004;28;20069;-67
2022/09/10 06:01:50;;;;;;;0.50;0.50;;;;;;;19.09;66.64;99221.19;4994069;28;20331;-68
2022/09/10 06:04:21;;;;;;;0.60;0.60;;;;;;;19.21;66.21;99225.00;4995164;28;20100;-67
2022/09/10 06:06:50;;;;;;;0.40;0.40;;;;;;;19.36;66.51;99221.78;4977467;28;20038;-67
2022/09/10 06:09:19;;;;;;;0.40;0.40;;;;;;;19.39;66.36;99221.63;4994632;28;20043;-67
2022/09/10 06:12:00;;;;;;;0.40;0.40;;;;;;;19.52;65.98;99220.19;4994987;28;20046;-66
2022/09/10 06:14:30;;;;;;;1.15;1.05;;;;;;;19.62;65.39;99220.63;4994995;28;20125;-66
2022/09/10 06:17:01;;;;;;;0.40;0.40;;;;;;;19.74;64.95;99225.25;4977581;28;20069;-67
2022/09/10 06:19:31;;;;;;;1.50;0.70;;;;;;;19.77;64.45;99225.94;4977278;28;20496;-67
2022/09/10 06:22:00;;;;;;;0.52;0.52;;;;;;;19.85;64.58;99226.44;4977293;28;20440;-66
2022/09/10 06:24:31;;;;;;;1.38;1.15;;;;;;;19.86;64.63;99230.72;4977408;28;20050;-66
2022/09/10 06:27:01;;;;;;;0.30;0.30;;;;;;;19.87;64.48;99237.56;4977362;28;20476;-66
2022/09/10 06:29:32;;;;;;;0.40;0.40;;;;;;;19.91;64.10;99244.31;4994367;28;20046;-67
2022/09/10 06:32:02;;;;;;;0.50;0.50;;;;;;;19.96;64.00;99236.31;4977048;28;20049;-65
2022/09/10 06:34:31;;;;;;;0.40;0.40;;;;;;;19.94;63.94;99230.34;4994589;28;20500;-67
2022/09/10 06:37:01;;;;;;;0.50;0.50;;;;;;;19.97;63.32;99238.84;4994475;28;20074;-68
2022/09/10 06:39:32;;;;;;;0.47;0.47;;;;;;;20.03;62.50;99233.34;4994287;28;20050;-68
2022/09/10 06:42:02;;;;;;;0.40;0.40;;;;;;;20.12;62.14;99231.25;4955426;28;20051;-68
2022/09/10 06:44:40;;;;;;;0.40;0.40;;;;;;;20.11;61.96;99227.00;4955630;29;20063;-68
2022/09/10 06:47:23;;;;;;;0.40;0.40;;;;;;;20.16;61.77;99228.44;4954398;29;20047;-68
2022/09/10 06:50:12;;;;;;;0.43;0.43;;;;;;;20.15;62.41;99228.53;4954398;29;20047;-67
2022/09/10 06:52:44;;;;;;;0.57;0.57;;;;;;;20.11;62.34;99224.41;4954992;28;20409;-69
2022/09/10 06:55:15;;;;;;;0.70;0.70;;;;;;;20.17;62.75;99226.69;4955116;28;20471;-68
2022/09/10 06:57:46;;;;;;;0.40;0.40;;;;;;;20.22;63.06;99223.03;4955304;29;20055;-67
2022/09/10 07:00:17;;;;;;;0.82;0.82;;;;;;;20.27;63.30;99225.41;4955130;28;20512;-67
2022/09/10 07:02:53;;;;;;;0.70;0.70;;;;;;;20.33;63.18;99230.28;4955417;28;20051;-67
2022/09/10 07:05:26;;;;;;;1.75;0.90;;;;;;;20.39;63.50;99230.00;4955306;29;20085;-68
2022/09/10 07:07:55;;;;;;;0.40;0.40;;;;;;;20.41;62.79;99233.34;4955526;29;20497;-67
2022/09/10 07:10:23;;;;;;;0.43;0.43;;;;;;;20.47;61.36;99233.03;4954147;29;20051;-68
2022/09/10 07:12:52;;;;;;;0.50;0.50;;;;;;;20.64;61.49;99225.28;4955530;28;20454;-68
2022/09/10 07:15:22;;;;;;;0.68;0.68;;;;;;;20.87;60.46;99227.63;4955614;29;20070;-68
2022/09/10 07:17:51;;;;;;;0.40;0.40;;;;;;;21.11;59.28;99231.63;4954104;29;20044;-68
2022/09/10 07:20:24;;;;;;;0.50;0.50;;;;;;;21.35;58.49;99225.13;4955510;29;20070;-67
2022/09/10 07:22:54;;;;;;;0.30;0.30;;;;;;;21.58;58.03;99230.91;4953995;29;20070;-67
2022/09/10 07:25:26;;;;;;;0.45;0.45;;;;;;;21.71;57.24;99231.94;4955189;28;20138;-67
2022/09/10 07:28:03;;;;;;;0.40;0.40;;;;;;;21.69;57.00;99232.00;4954077;29;20047;-67
2022/09/10 07:30:34;;;;;;;0.40;0.40;;;;;;;21.71;57.10;99229.34;4955406;29;20057;-68
2022/09/10 07:33:03;;;;;;;0.40;0.40;;;;;;;21.82;56.34;99229.59;4954216;29;20066;-68
2022/09/10 07:35:36;;;;;;;0.40;0.40;;;;;;;21.89;55.68;99234.41;4953830;29;20050;-68
2022/09/10 07:38:07;;;;;;;0.40;0.40;;;;;;;21.88;55.27;99240.53;4955361;28;20390;-69
2022/09/10 07:40:39;;;;;;;0.60;0.60;;;;;;;21.83;54.92;99241.69;4962012;28;20051;-68
2022/09/10 07:43:08;;;;;;;0.60;0.60;;;;;;;21.84;54.69;99245.94;4974395;28;20043;-67
2022/09/10 07:45:37;;;;;;;0.40;0.40;;;;;;;21.95;54.18;99247.06;4974553;28;20050;-68
2022/09/10 07:48:06;;;;;;;0.40;0.40;;;;;;;22.17;53.76;99241.53;4974651;28;20129;-67
2022/09/10 07:50:39;;;;;;;0.30;0.30;;;;;;;22.35;52.54;99250.94;4974511;28;20047;-68
2022/09/10 07:53:10;;;;;;;0.40;0.40;;;;;;;22.38;52.03;99255.13;4973419;28;20055;-68
2022/09/10 07:55:40;;;;;;;0.40;0.40;;;;;;;22.29;51.44;99253.88;4974579;28;20057;-68
2022/09/10 07:58:09;;;;;;;0.40;0.40;;;;;;;22.39;51.67;99252.44;4974408;28;20034;-67
2022/09/10 08:00:43;;;;;;;0.40;0.40;;;;;;;22.45;53.06;99252.13;4974302;28;20105;-67
2022/09/10 08:03:14;;;;;;;0.50;0.50;;;;;;;22.53;54.01;99254.28;4974099;28;20061;-67
2022/09/10 08:05:45;;;;;;;0.50;0.50;;;;;;;22.63;54.02;99255.47;4976213;28;20062;-67
2022/09/10 08:08:15;;;;;;;0.40;0.40;;;;;;;22.85;54.46;99260.28;4976521;28;20051;-68
2022/09/10 08:10:44;;;;;;;0.50;0.50;;;;;;;22.91;53.62;99254.75;4977843;28;20533;-67
2022/09/10 08:13:14;;;;;;;0.30;0.30;;;;;;;22.85;54.24;99248.13;4976360;28;20058;-68
2022/09/10 08:15:43;;;;;;;0.40;0.40;;;;;;;22.66;54.61;99240.53;4976327;28;20043;-67
2022/09/10 08:18:13;;;;;;;0.40;0.40;;;;;;;22.60;54.35;99253.84;4976390;28;20081;-67
2022/09/10 08:20:44;;;;;;;0.40;0.40;;;;;;;22.63;55.04;99243.28;4976658;28;20480;-67
2022/09/10 08:23:13;;;;;;;0.40;0.40;;;;;;;22.79;54.86;99245.88;4979490;28;20055;-67
2022/09/10 08:25:50;;;;;;;0.50;0.50;;;;;;;22.95;54.93;99251.88;4977643;28;20045;-68
2022/09/10 08:28:20;;;;;;;0.47;0.47;;;;;;;23.10;55.59;99243.19;4977094;28;20047;-68
2022/09/10 08:31:00;;;;;;;0.40;0.40;;;;;;;23.23;55.90;99256.28;4977269;28;20058;-68
2022/09/10 08:33:31;;;;;;;0.35;0.35;;;;;;;23.28;56.18;99254.25;4975972;28;20046;-68
2022/09/10 08:36:04;;;;;;;0.52;0.52;;;;;;;23.34;54.61;99253.91;4976234;28;20041;-68
2022/09/10 08:38:34;;;;;;;0.40;0.40;;;;;;;23.37;53.41;99258.13;4977084;28;20106;-68
2022/09/10 08:41:12;;;;;;;0.38;0.38;;;;;;;23.45;52.63;99256.72;4975564;28;20552;-68
2022/09/10 08:43:49;;;;;;;0.63;0.63;;;;;;;23.53;52.52;99256.28;4976056;28;20082;-68
2022/09/10 08:46:22;;;;;;;0.40;0.40;;;;;;;23.67;53.14;99257.13;4975730;28;20587;-67
2022/09/10 08:48:55;;;;;;;0.50;0.50;;;;;;;23.75;52.02;99254.03;4976740;28;20377;-68
2022/09/10 08:51:29;;;;;;;0.40;0.40;;;;;;;23.83;52.20;99263.06;4977194;28;20062;-68
2022/09/10 08:54:06;;;;;;;0.45;0.45;;;;;;;23.96;51.98;99257.94;4975916;28;20051;-67
2022/09/10 08:56:35;;;;;;;0.40;0.40;;;;;;;24.07;51.66;99260.72;4976134;28;20070;-68
2022/09/10 08:59:13;;;;;;;0.40;0.40;;;;;;;23.84;50.75;99259.53;4976981;28;20097;-68
2022/09/10 09:01:49;;;;;;;0.40;0.40;;;;;;;23.91;51.66;99255.63;4975701;28;20397;-68
2022/09/10 09:04:28;;;;;;;0.40;0.40;;;;;;;23.98;50.77;99258.66;4976861;28;20078;-68
2022/09/10 09:07:01;;;;;;;9.73;1.48;;;;;;;24.11;49.90;99266.59;4976602;28;20497;-68
2022/09/10 09:09:31;;;;;;;0.50;0.50;;;;;;;24.27;50.56;99262.09;4976484;28;20049;-69
2022/09/10 09:12:06;;;;;;;0.40;0.40;;;;;;;24.27;50.43;99256.88;4975213;28;20053;-68
2022/09/10 09:14:51;;;;;;;0.40;0.40;;;;;;;24.37;50.99;99255.38;4976614;28;20054;-68
2022/09/10 09:17:39;;;;;;;0.50;0.50;;;;;;;24.56;50.33;99248.03;4975127;28;20177;-68
2022/09/10 09:20:17;;;;;;;0.40;0.40;;;;;;;24.50;49.31;99248.41;4975054;28;20070;-68
2022/09/10 09:22:55;;;;;;;0.45;0.45;;;;;;;24.24;49.39;99262.28;4976597;28;20468;-68
2022/09/10 09:25:38;;;;;;;0.65;0.50;;;;;;;24.04;50.02;99252.25;4976382;28;20401;-68
2022/09/10 09:28:25;;;;;;;0.43;0.43;;;;;;;24.04;50.64;99260.06;4976141;28;20058;-68
2022/09/10 09:30:59;;;;;;;0.50;0.50;;;;;;;24.29;51.69;99255.00;4976370;28;20405;-68
2022/09/10 09:33:30;;;;;;;0.40;0.40;;;;;;;24.44;50.68;99254.88;4976293;28;20137;-68
2022/09/10 09:36:03;;;;;;;0.40;0.40;;;;;;;24.63;50.87;99254.53;4974816;28;20098;-69
2022/09/10 09:38:39;;;;;;;1.75;1.00;;;;;;;24.71;51.06;99247.03;4976057;28;20069;-68
2022/09/10 09:41:21;;;;;;;0.50;0.50;;;;;;;24.86;51.37;99240.81;4986631;28;20133;-68
2022/09/10 09:43:56;;;;;;;0.30;0.30;;;;;;;24.96;51.04;99235.81;4977891;28;20101;-68
2022/09/10 09:46:26;;;;;;;0.40;0.40;;;;;;;24.95;49.30;99240.22;4995115;28;20054;-68
2022/09/10 09:49:02;;;;;;;0.38;0.38;;;;;;;24.98;48.66;99239.19;4995458;28;20153;-68
2022/09/10 09:51:34;;;;;;;0.40;0.40;;;;;;;25.11;49.36;99230.44;4995375;28;20500;-68
2022/09/10 09:54:11;;;;;;;0.40;0.40;;;;;;;25.26;49.22;99218.94;4995075;28;20046;-69
2022/09/10 09:57:00;;;;;;;0.63;0.63;;;;;;;25.31;48.80;99221.25;4995329;28;20038;-68
2022/09/10 09:59:30;;;;;;;0.47;0.47;;;;;;;25.32;49.62;99217.69;4994898;28;20129;-68
2022/09/10 10:02:05;;;;;;;0.40;0.40;;;;;;;25.35;49.33;99222.69;4994848;28;20058;-68
2022/09/10 10:04:35;;;;;;;0.35;0.35;;;;;;;25.40;48.71;99217.16;4994889;28;20085;-68
2022/09/10 10:07:12;;;;;;;0.40;0.40;;;;;;;25.52;48.51;99216.34;4994870;28;20097;-67
2022/09/10 10:09:43;;;;;;;0.47;0.47;;;;;;;25.60;49.24;99219.28;4994732;28;20039;-68
2022/09/10 10:12:20;;;;;;;0.30;0.30;;;;;;;25.54;48.96;99211.84;4994822;28;20046;-68
2022/09/10 10:14:50;;;;;;;0.40;0.40;;;;;;;25.31;48.65;99211.59;4995060;28;20068;-67
2022/09/10 10:17:32;;;;;;;0.40;0.40;;;;;;;25.38;49.34;99212.03;4994638;28;20047;-68
2022/09/10 10:20:07;;;;;;;0.40;0.40;;;;;;;25.56;48.99;99204.72;4995005;28;20077;-68
2022/09/10 10:22:39;;;;;;;0.40;0.40;;;;;;;25.61;48.73;99203.47;4994751;28;20141;-68
2022/09/10 10:25:33;;;;;;;0.40;0.40;;;;;;;25.58;48.53;99208.09;4994481;28;20471;-67
2022/09/10 10:28:04;;;;;;;0.60;0.57;;;;;;;25.60;49.09;99208.81;4993725;28;20038;-67
2022/09/10 10:30:33;;;;;;;0.35;0.35;;;;;;;25.46;48.79;99217.59;4994403;28;20058;-69
2022/09/10 10:33:03;;;;;;;0.50;0.50;;;;;;;25.31;48.80;99219.44;4977322;28;20049;-68
2022/09/10 10:35:38;;;;;;;0.35;0.35;;;;;;;25.10;49.26;99213.06;4994669;28;20097;-67
2022/09/10 10:38:27;;;;;;;0.50;0.50;;;;;;;24.85;49.04;99215.66;4994336;28;20054;-68
2022/09/10 10:41:17;;;;;;;0.35;0.35;;;;;;;24.67;49.14;99218.63;4994058;28;20052;-68
2022/09/10 10:43:58;;;;;;;0.30;0.30;;;;;;;24.64;49.94;99210.03;4994273;28;20370;-68
2022/09/10 10:46:36;;;;;;;0.38;0.38;;;;;;;24.65;50.22;99213.50;4994226;28;20065;-68
2022/09/10 10:49:15;;;;;;;0.40;0.40;;;;;;;24.71;50.15;99212.25;4994674;28;20054;-68
2022/09/10 10:51:49;;;;;;;;;;;;;;;24.89;50.13;99219.72;4994741;28;20042;-67
2022/09/10 10:54:36;;;;;;;0.40;0.40;;;;;;;24.74;49.06;99218.09;4994471;28;19961;-68
2022/09/10 10:57:16;;;;;;;0.40;0.40;;;;;;;24.87;49.15;99221.63;4994923;28;20069;-67
2022/09/10 10:59:56;;;;;;;0.50;0.50;;;;;;;24.79;48.86;99218.66;4997703;28;20046;-68
2022/09/10 11:02:37;;;;;;;0.40;0.40;;;;;;;25.04;49.15;99208.28;4994427;28;20078;-68
2022/09/10 11:05:25;;;;;;;0.40;0.40;;;;;;;25.37;48.77;99214.75;4994463;28;20053;-68
2022/09/10 11:07:55;;;;;;;0.38;0.38;;;;;;;25.66;48.86;99211.84;4994028;28;20058;-68
2022/09/10 11:10:28;;;;;;;0.40;0.40;;;;;;;25.91;48.57;99201.31;4993973;28;20599;-68
2022/09/10 11:13:05;;;;;;;0.50;0.50;;;;;;;26.11;47.97;99213.00;4994332;28;20046;-68
2022/09/10 11:15:42;;;;;;;0.40;0.40;;;;;;;26.28;47.30;99210.00;4994011;28;20054;-69
2022/09/10 11:18:19;;;;;;;0.40;0.40;;;;;;;26.27;47.46;99215.38;4993912;28;20129;-68
2022/09/10 11:20:57;;;;;;;0.30;0.30;;;;;;;26.30;47.76;99215.97;4993913;28;20059;-68
2022/09/10 11:23:32;;;;;;;0.63;0.63;;;;;;;26.50;47.19;99201.41;4993879;28;20039;-69
2022/09/10 11:26:07;;;;;;;0.40;0.40;;;;;;;26.59;46.34;99203.34;4994099;28;20058;-69
2022/09/10 11:28:42;;;;;;;0.50;0.50;;;;;;;26.63;45.34;99205.63;4994171;28;20054;-69
2022/09/10 11:31:20;;;;;;;0.35;0.35;;;;;;;26.50;44.60;99210.13;4993866;28;20042;-68
2022/09/10 11:33:55;;;;;;;0.45;0.45;;;;;;;26.27;44.90;99210.13;4994032;28;20054;-68
2022/09/10 11:36:30;;;;;;;0.70;0.70;;;;;;;26.43;46.03;99208.91;4993864;28;20074;-69
2022/09/10 11:39:10;;;;;;;0.35;0.35;;;;;;;26.33;45.76;99205.28;4995155;28;20089;-68
2022/09/10 11:41:42;;;;;;;0.50;0.50;;;;;;;26.15;45.06;99197.94;4997375;28;20393;-68
2022/09/10 11:44:25;;;;;;;0.43;0.43;;;;;;;25.99;44.96;99199.94;4997307;28;20046;-68
2022/09/10 11:47:04;;;;;;;0.43;0.43;;;;;;;25.85;45.67;99193.06;4997377;28;20062;-69
2022/09/10 11:49:42;;;;;;;0.40;0.40;;;;;;;25.83;47.07;99195.78;4997479;28;20042;-68
2022/09/10 11:52:11;;;;;;;0.40;0.40;;;;;;;25.79;47.16;99196.13;4997338;28;20057;-68
2022/09/10 11:54:41;;;;;;;0.50;0.50;;;;;;;25.71;46.38;99193.19;4997297;28;20109;-68
2022/09/10 11:57:20;;;;;;;0.50;0.50;;;;;;;25.58;45.11;99192.41;4997436;28;20385;-68
2022/09/10 12:00:07;;;;;;;0.40;0.40;;;;;;;25.44;45.09;99189.84;4997452;28;20054;-68
2022/09/10 12:03:05;;;;;;;0.40;0.40;;;;;;;25.51;45.03;99197.19;4997260;28;20050;-68